sensor_id;sensor_type;location;lat;lon;timestamp;P1;durP1;ratioP1;P2;durP2;ratioP2
72060;SDS011;59925;52.136;5.420;2023-03-01T00:01:36;8.23;;;5.20;;
72060;SDS011;59925;52.136;5.420;2023-03-01T00:04:03;9.23;;;5.85;;
72060;SDS011;59925;52.136;5.420;2023-03-01T00:06:30;15.18;;;5.93;;
72060;SDS011;59925;52.136;5.420;2023-03-01T00:08:57;7.72;;;4.85;;
72060;SDS011;59925;52.136;5.420;2023-03-01T00:11:29;13.88;;;5.93;;
72060;SDS011;59925;52.136;5.420;2023-03-01T00:13:59;11.70;;;5.70;;
72060;SDS011;59925;52.136;5.420;2023-03-01T00:16:30;13.00;;;5.80;;
72060;SDS011;59925;52.136;5.420;2023-03-01T00:19:00;11.85;;;5.85;;
72060;SDS011;59925;52.136;5.420;2023-03-01T00:21:27;12.75;;;6.15;;
72060;SDS011;59925;52.136;5.420;2023-03-01T00:23:54;13.02;;;6.68;;
72060;SDS011;59925;52.136;5.420;2023-03-01T00:26:21;9.27;;;5.33;;
72060;SDS011;59925;52.136;5.420;2023-03-01T00:28:49;8.40;;;5.20;;
72060;SDS011;59925;52.136;5.420;2023-03-01T00:31:16;11.25;;;5.47;;
72060;SDS011;59925;52.136;5.420;2023-03-01T00:33:45;11.35;;;5.65;;
72060;SDS011;59925;52.136;5.420;2023-03-01T00:36:12;12.23;;;5.75;;
72060;SDS011;59925;52.136;5.420;2023-03-01T00:38:41;12.47;;;6.10;;
72060;SDS011;59925;52.136;5.420;2023-03-01T00:41:10;15.13;;;6.25;;
72060;SDS011;59925;52.136;5.420;2023-03-01T00:43:42;9.82;;;5.68;;
72060;SDS011;59925;52.136;5.420;2023-03-01T00:46:11;10.63;;;5.63;;
72060;SDS011;59925;52.136;5.420;2023-03-01T00:48:41;10.70;;;5.65;;
72060;SDS011;59925;52.136;5.420;2023-03-01T00:51:09;11.73;;;6.20;;
72060;SDS011;59925;52.136;5.420;2023-03-01T00:53:40;11.30;;;5.82;;
72060;SDS011;59925;52.136;5.420;2023-03-01T00:56:08;13.60;;;5.72;;
72060;SDS011;59925;52.136;5.420;2023-03-01T00:58:36;12.20;;;5.55;;
72060;SDS011;59925;52.136;5.420;2023-03-01T01:03:44;9.90;;;6.27;;
72060;SDS011;59925;52.136;5.420;2023-03-01T01:06:19;10.65;;;5.65;;
72060;SDS011;59925;52.136;5.420;2023-03-01T01:08:48;13.32;;;5.65;;
72060;SDS011;59925;52.136;5.420;2023-03-01T01:11:15;10.95;;;5.22;;
72060;SDS011;59925;52.136;5.420;2023-03-01T01:13:43;10.90;;;5.72;;
72060;SDS011;59925;52.136;5.420;2023-03-01T01:16:11;11.07;;;6.20;;
72060;SDS011;59925;52.136;5.420;2023-03-01T01:18:38;13.00;;;6.60;;
72060;SDS011;59925;52.136;5.420;2023-03-01T01:21:06;14.02;;;6.45;;
72060;SDS011;59925;52.136;5.420;2023-03-01T01:23:34;11.30;;;6.03;;
72060;SDS011;59925;52.136;5.420;2023-03-01T01:26:08;10.35;;;6.05;;
72060;SDS011;59925;52.136;5.420;2023-03-01T01:28:37;11.80;;;6.47;;
72060;SDS011;59925;52.136;5.420;2023-03-01T01:31:04;10.90;;;5.68;;
72060;SDS011;59925;52.136;5.420;2023-03-01T01:33:32;11.15;;;6.28;;
72060;SDS011;59925;52.136;5.420;2023-03-01T01:35:59;10.80;;;6.35;;
72060;SDS011;59925;52.136;5.420;2023-03-01T01:38:26;12.90;;;6.65;;
72060;SDS011;59925;52.136;5.420;2023-03-01T01:40:53;12.47;;;5.73;;
72060;SDS011;59925;52.136;5.420;2023-03-01T01:43:27;11.70;;;6.15;;
72060;SDS011;59925;52.136;5.420;2023-03-01T01:46:20;16.55;;;7.05;;
72060;SDS011;59925;52.136;5.420;2023-03-01T01:48:46;13.20;;;6.53;;
72060;SDS011;59925;52.136;5.420;2023-03-01T01:51:18;11.65;;;6.30;;
72060;SDS011;59925;52.136;5.420;2023-03-01T01:53:47;13.57;;;6.50;;
72060;SDS011;59925;52.136;5.420;2023-03-01T01:56:21;12.88;;;6.35;;
72060;SDS011;59925;52.136;5.420;2023-03-01T01:58:50;11.10;;;6.22;;
72060;SDS011;59925;52.136;5.420;2023-03-01T02:01:17;11.05;;;6.50;;
72060;SDS011;59925;52.136;5.420;2023-03-01T02:03:44;12.93;;;6.38;;
72060;SDS011;59925;52.136;5.420;2023-03-01T02:08:47;11.85;;;6.13;;
72060;SDS011;59925;52.136;5.420;2023-03-01T02:11:15;12.38;;;6.00;;
72060;SDS011;59925;52.136;5.420;2023-03-01T02:13:44;13.93;;;6.22;;
72060;SDS011;59925;52.136;5.420;2023-03-01T02:16:13;14.52;;;6.95;;
72060;SDS011;59925;52.136;5.420;2023-03-01T02:18:41;14.77;;;6.10;;
72060;SDS011;59925;52.136;5.420;2023-03-01T02:21:16;10.35;;;5.80;;
72060;SDS011;59925;52.136;5.420;2023-03-01T02:23:46;11.10;;;6.43;;
72060;SDS011;59925;52.136;5.420;2023-03-01T02:28:49;9.55;;;6.10;;
72060;SDS011;59925;52.136;5.420;2023-03-01T02:31:17;12.63;;;6.43;;
72060;SDS011;59925;52.136;5.420;2023-03-01T02:34:05;10.85;;;5.90;;
72060;SDS011;59925;52.136;5.420;2023-03-01T02:36:37;13.02;;;6.47;;
72060;SDS011;59925;52.136;5.420;2023-03-01T02:39:07;11.90;;;6.50;;
72060;SDS011;59925;52.136;5.420;2023-03-01T02:41:41;12.40;;;5.72;;
72060;SDS011;59925;52.136;5.420;2023-03-01T02:44:12;14.60;;;6.20;;
72060;SDS011;59925;52.136;5.420;2023-03-01T02:46:43;10.52;;;5.85;;
72060;SDS011;59925;52.136;5.420;2023-03-01T02:49:16;12.30;;;6.43;;
72060;SDS011;59925;52.136;5.420;2023-03-01T02:57:31;7.93;;;5.77;;
72060;SDS011;59925;52.136;5.420;2023-03-01T03:00:02;11.38;;;6.25;;
72060;SDS011;59925;52.136;5.420;2023-03-01T03:02:34;13.80;;;6.20;;
72060;SDS011;59925;52.136;5.420;2023-03-01T03:07:38;12.43;;;5.70;;
72060;SDS011;59925;52.136;5.420;2023-03-01T03:10:09;12.07;;;5.90;;
72060;SDS011;59925;52.136;5.420;2023-03-01T03:12:37;10.60;;;6.00;;
72060;SDS011;59925;52.136;5.420;2023-03-01T03:15:05;13.43;;;5.75;;
72060;SDS011;59925;52.136;5.420;2023-03-01T03:17:36;11.70;;;6.07;;
72060;SDS011;59925;52.136;5.420;2023-03-01T03:20:04;9.15;;;5.63;;
72060;SDS011;59925;52.136;5.420;2023-03-01T03:22:32;14.50;;;5.90;;
72060;SDS011;59925;52.136;5.420;2023-03-01T03:25:00;11.95;;;6.45;;
72060;SDS011;59925;52.136;5.420;2023-03-01T03:27:27;13.63;;;6.53;;
72060;SDS011;59925;52.136;5.420;2023-03-01T03:29:54;12.30;;;6.82;;
72060;SDS011;59925;52.136;5.420;2023-03-01T03:32:21;12.93;;;6.28;;
72060;SDS011;59925;52.136;5.420;2023-03-01T03:34:47;11.67;;;5.93;;
72060;SDS011;59925;52.136;5.420;2023-03-01T03:37:15;11.55;;;6.47;;
72060;SDS011;59925;52.136;5.420;2023-03-01T03:40:00;14.35;;;6.30;;
72060;SDS011;59925;52.136;5.420;2023-03-01T03:42:27;10.05;;;6.10;;
72060;SDS011;59925;52.136;5.420;2023-03-01T03:44:53;14.30;;;5.78;;
72060;SDS011;59925;52.136;5.420;2023-03-01T03:47:20;10.77;;;5.70;;
72060;SDS011;59925;52.136;5.420;2023-03-01T03:49:46;12.27;;;6.85;;
72060;SDS011;59925;52.136;5.420;2023-03-01T03:52:13;9.80;;;5.55;;
72060;SDS011;59925;52.136;5.420;2023-03-01T03:54:40;14.02;;;6.13;;
72060;SDS011;59925;52.136;5.420;2023-03-01T03:57:07;13.48;;;6.30;;
72060;SDS011;59925;52.136;5.420;2023-03-01T03:59:34;14.83;;;7.17;;
72060;SDS011;59925;52.136;5.420;2023-03-01T04:02:00;10.32;;;5.68;;
72060;SDS011;59925;52.136;5.420;2023-03-01T04:04:27;10.88;;;6.35;;
72060;SDS011;59925;52.136;5.420;2023-03-01T04:06:53;11.32;;;5.65;;
72060;SDS011;59925;52.136;5.420;2023-03-01T04:09:20;10.95;;;6.20;;
72060;SDS011;59925;52.136;5.420;2023-03-01T04:11:47;11.23;;;6.20;;
72060;SDS011;59925;52.136;5.420;2023-03-01T04:14:13;14.02;;;6.32;;
72060;SDS011;59925;52.136;5.420;2023-03-01T04:16:40;11.95;;;5.95;;
72060;SDS011;59925;52.136;5.420;2023-03-01T04:19:07;9.57;;;5.45;;
72060;SDS011;59925;52.136;5.420;2023-03-01T04:21:35;12.93;;;6.13;;
72060;SDS011;59925;52.136;5.420;2023-03-01T04:24:02;14.03;;;5.70;;
72060;SDS011;59925;52.136;5.420;2023-03-01T04:26:32;11.27;;;5.57;;
72060;SDS011;59925;52.136;5.420;2023-03-01T04:29:00;9.75;;;5.32;;
72060;SDS011;59925;52.136;5.420;2023-03-01T04:31:26;9.70;;;5.80;;
72060;SDS011;59925;52.136;5.420;2023-03-01T04:33:55;11.57;;;5.63;;
72060;SDS011;59925;52.136;5.420;2023-03-01T04:36:23;12.47;;;6.07;;
72060;SDS011;59925;52.136;5.420;2023-03-01T04:38:52;11.88;;;5.43;;
72060;SDS011;59925;52.136;5.420;2023-03-01T04:41:19;11.10;;;5.20;;
72060;SDS011;59925;52.136;5.420;2023-03-01T04:43:48;11.40;;;5.47;;
72060;SDS011;59925;52.136;5.420;2023-03-01T04:46:16;11.15;;;6.35;;
72060;SDS011;59925;52.136;5.420;2023-03-01T04:48:47;10.10;;;5.97;;
72060;SDS011;59925;52.136;5.420;2023-03-01T04:51:15;11.32;;;5.40;;
72060;SDS011;59925;52.136;5.420;2023-03-01T04:53:42;11.85;;;5.60;;
72060;SDS011;59925;52.136;5.420;2023-03-01T04:56:09;12.35;;;5.53;;
72060;SDS011;59925;52.136;5.420;2023-03-01T04:58:36;10.07;;;5.53;;
72060;SDS011;59925;52.136;5.420;2023-03-01T05:01:07;10.83;;;6.10;;
72060;SDS011;59925;52.136;5.420;2023-03-01T05:03:46;11.77;;;5.80;;
72060;SDS011;59925;52.136;5.420;2023-03-01T05:06:15;11.68;;;6.03;;
72060;SDS011;59925;52.136;5.420;2023-03-01T05:08:43;10.35;;;5.72;;
72060;SDS011;59925;52.136;5.420;2023-03-01T05:11:10;13.77;;;6.32;;
72060;SDS011;59925;52.136;5.420;2023-03-01T05:13:38;10.67;;;5.60;;
72060;SDS011;59925;52.136;5.420;2023-03-01T05:16:06;9.63;;;6.13;;
72060;SDS011;59925;52.136;5.420;2023-03-01T05:18:38;14.73;;;6.40;;
72060;SDS011;59925;52.136;5.420;2023-03-01T05:21:10;10.88;;;5.65;;
72060;SDS011;59925;52.136;5.420;2023-03-01T05:23:39;11.05;;;6.03;;
72060;SDS011;59925;52.136;5.420;2023-03-01T05:26:06;11.07;;;5.50;;
72060;SDS011;59925;52.136;5.420;2023-03-01T05:28:53;9.15;;;5.72;;
72060;SDS011;59925;52.136;5.420;2023-03-01T05:31:25;10.57;;;5.82;;
72060;SDS011;59925;52.136;5.420;2023-03-01T05:33:52;11.57;;;5.78;;
72060;SDS011;59925;52.136;5.420;2023-03-01T05:36:19;15.35;;;6.03;;
72060;SDS011;59925;52.136;5.420;2023-03-01T05:38:45;11.90;;;5.87;;
72060;SDS011;59925;52.136;5.420;2023-03-01T05:41:15;12.13;;;6.18;;
72060;SDS011;59925;52.136;5.420;2023-03-01T05:43:43;12.20;;;6.20;;
72060;SDS011;59925;52.136;5.420;2023-03-01T05:46:11;12.15;;;6.28;;
72060;SDS011;59925;52.136;5.420;2023-03-01T05:48:39;11.60;;;6.20;;
72060;SDS011;59925;52.136;5.420;2023-03-01T05:51:06;12.23;;;6.00;;
72060;SDS011;59925;52.136;5.420;2023-03-01T05:53:33;12.95;;;6.65;;
72060;SDS011;59925;52.136;5.420;2023-03-01T05:55:59;12.15;;;6.38;;
72060;SDS011;59925;52.136;5.420;2023-03-01T05:58:28;10.95;;;5.78;;
72060;SDS011;59925;52.136;5.420;2023-03-01T06:00:55;11.93;;;6.15;;
72060;SDS011;59925;52.136;5.420;2023-03-01T06:03:23;13.00;;;6.67;;
72060;SDS011;59925;52.136;5.420;2023-03-01T06:05:49;15.43;;;6.32;;
72060;SDS011;59925;52.136;5.420;2023-03-01T06:08:28;10.90;;;6.30;;
72060;SDS011;59925;52.136;5.420;2023-03-01T06:10:57;12.68;;;5.93;;
72060;SDS011;59925;52.136;5.420;2023-03-01T06:13:24;11.63;;;6.63;;
72060;SDS011;59925;52.136;5.420;2023-03-01T06:15:50;12.97;;;6.20;;
72060;SDS011;59925;52.136;5.420;2023-03-01T06:18:18;14.10;;;6.30;;
72060;SDS011;59925;52.136;5.420;2023-03-01T06:20:44;15.35;;;6.93;;
72060;SDS011;59925;52.136;5.420;2023-03-01T06:23:11;12.48;;;6.55;;
72060;SDS011;59925;52.136;5.420;2023-03-01T06:25:37;13.23;;;6.70;;
72060;SDS011;59925;52.136;5.420;2023-03-01T06:28:04;14.27;;;7.10;;
72060;SDS011;59925;52.136;5.420;2023-03-01T06:30:30;12.65;;;6.80;;
72060;SDS011;59925;52.136;5.420;2023-03-01T06:32:57;13.48;;;6.93;;
72060;SDS011;59925;52.136;5.420;2023-03-01T06:35:27;13.85;;;6.55;;
72060;SDS011;59925;52.136;5.420;2023-03-01T06:37:56;14.32;;;7.15;;
72060;SDS011;59925;52.136;5.420;2023-03-01T06:40:23;14.27;;;6.93;;
72060;SDS011;59925;52.136;5.420;2023-03-01T06:42:50;15.48;;;7.00;;
72060;SDS011;59925;52.136;5.420;2023-03-01T06:45:17;14.15;;;7.53;;
72060;SDS011;59925;52.136;5.420;2023-03-01T06:47:45;13.93;;;7.28;;
72060;SDS011;59925;52.136;5.420;2023-03-01T06:50:12;13.85;;;6.47;;
72060;SDS011;59925;52.136;5.420;2023-03-01T06:52:40;14.03;;;7.03;;
72060;SDS011;59925;52.136;5.420;2023-03-01T06:55:07;16.38;;;7.70;;
72060;SDS011;59925;52.136;5.420;2023-03-01T06:57:34;13.70;;;6.38;;
72060;SDS011;59925;52.136;5.420;2023-03-01T07:00:00;11.88;;;6.35;;
72060;SDS011;59925;52.136;5.420;2023-03-01T07:02:27;15.23;;;7.47;;
72060;SDS011;59925;52.136;5.420;2023-03-01T07:04:54;15.23;;;7.27;;
72060;SDS011;59925;52.136;5.420;2023-03-01T07:07:20;13.32;;;7.43;;
72060;SDS011;59925;52.136;5.420;2023-03-01T07:09:48;13.88;;;7.18;;
72060;SDS011;59925;52.136;5.420;2023-03-01T07:12:15;14.82;;;6.95;;
72060;SDS011;59925;52.136;5.420;2023-03-01T07:14:43;12.82;;;6.82;;
72060;SDS011;59925;52.136;5.420;2023-03-01T07:17:10;12.17;;;6.23;;
72060;SDS011;59925;52.136;5.420;2023-03-01T07:19:36;12.70;;;6.50;;
72060;SDS011;59925;52.136;5.420;2023-03-01T07:22:03;17.98;;;7.90;;
72060;SDS011;59925;52.136;5.420;2023-03-01T07:24:30;17.90;;;7.70;;
72060;SDS011;59925;52.136;5.420;2023-03-01T07:26:56;13.38;;;6.95;;
72060;SDS011;59925;52.136;5.420;2023-03-01T07:29:23;15.37;;;7.20;;
72060;SDS011;59925;52.136;5.420;2023-03-01T07:31:50;16.38;;;7.47;;
72060;SDS011;59925;52.136;5.420;2023-03-01T07:34:16;16.48;;;8.32;;
72060;SDS011;59925;52.136;5.420;2023-03-01T07:36:43;14.02;;;7.55;;
72060;SDS011;59925;52.136;5.420;2023-03-01T07:39:11;15.65;;;8.07;;
72060;SDS011;59925;52.136;5.420;2023-03-01T07:41:38;16.77;;;8.83;;
72060;SDS011;59925;52.136;5.420;2023-03-01T07:44:04;12.43;;;7.30;;
72060;SDS011;59925;52.136;5.420;2023-03-01T07:46:31;16.35;;;8.00;;
72060;SDS011;59925;52.136;5.420;2023-03-01T07:48:59;16.30;;;8.18;;
72060;SDS011;59925;52.136;5.420;2023-03-01T07:51:26;15.07;;;7.75;;
72060;SDS011;59925;52.136;5.420;2023-03-01T07:53:52;13.20;;;7.57;;
72060;SDS011;59925;52.136;5.420;2023-03-01T07:56:20;15.52;;;8.18;;
72060;SDS011;59925;52.136;5.420;2023-03-01T07:58:48;14.60;;;7.63;;
72060;SDS011;59925;52.136;5.420;2023-03-01T08:01:17;16.17;;;7.10;;
72060;SDS011;59925;52.136;5.420;2023-03-01T08:03:46;14.52;;;7.75;;
72060;SDS011;59925;52.136;5.420;2023-03-01T08:06:13;14.83;;;7.80;;
72060;SDS011;59925;52.136;5.420;2023-03-01T08:08:41;16.00;;;7.95;;
72060;SDS011;59925;52.136;5.420;2023-03-01T08:11:09;16.40;;;9.15;;
72060;SDS011;59925;52.136;5.420;2023-03-01T08:13:37;16.98;;;8.57;;
72060;SDS011;59925;52.136;5.420;2023-03-01T08:16:07;14.73;;;7.88;;
72060;SDS011;59925;52.136;5.420;2023-03-01T08:18:35;16.47;;;7.53;;
72060;SDS011;59925;52.136;5.420;2023-03-01T08:21:03;15.10;;;7.30;;
72060;SDS011;59925;52.136;5.420;2023-03-01T08:23:30;17.85;;;7.88;;
72060;SDS011;59925;52.136;5.420;2023-03-01T08:26:08;15.55;;;8.00;;
72060;SDS011;59925;52.136;5.420;2023-03-01T08:28:40;14.38;;;7.63;;
72060;SDS011;59925;52.136;5.420;2023-03-01T08:33:43;13.73;;;7.68;;
72060;SDS011;59925;52.136;5.420;2023-03-01T08:36:10;14.95;;;7.03;;
72060;SDS011;59925;52.136;5.420;2023-03-01T08:38:36;11.20;;;6.03;;
72060;SDS011;59925;52.136;5.420;2023-03-01T08:41:03;15.48;;;7.47;;
72060;SDS011;59925;52.136;5.420;2023-03-01T08:43:30;13.47;;;6.20;;
72060;SDS011;59925;52.136;5.420;2023-03-01T08:45:57;14.15;;;6.50;;
72060;SDS011;59925;52.136;5.420;2023-03-01T08:48:24;10.77;;;6.15;;
72060;SDS011;59925;52.136;5.420;2023-03-01T08:50:51;12.00;;;6.35;;
72060;SDS011;59925;52.136;5.420;2023-03-01T08:53:17;10.48;;;5.78;;
72060;SDS011;59925;52.136;5.420;2023-03-01T08:55:44;11.27;;;5.13;;
72060;SDS011;59925;52.136;5.420;2023-03-01T08:58:10;11.18;;;5.57;;
72060;SDS011;59925;52.136;5.420;2023-03-01T09:00:37;8.90;;;5.22;;
72060;SDS011;59925;52.136;5.420;2023-03-01T09:03:04;8.82;;;4.68;;
72060;SDS011;59925;52.136;5.420;2023-03-01T09:05:31;9.70;;;5.03;;
72060;SDS011;59925;52.136;5.420;2023-03-01T09:07:58;7.67;;;4.70;;
72060;SDS011;59925;52.136;5.420;2023-03-01T09:10:25;8.38;;;4.22;;
72060;SDS011;59925;52.136;5.420;2023-03-01T09:12:51;8.05;;;4.03;;
72060;SDS011;59925;52.136;5.420;2023-03-01T09:15:18;9.73;;;4.72;;
72060;SDS011;59925;52.136;5.420;2023-03-01T09:17:45;9.35;;;4.28;;
72060;SDS011;59925;52.136;5.420;2023-03-01T09:20:11;7.30;;;3.90;;
72060;SDS011;59925;52.136;5.420;2023-03-01T09:22:38;8.55;;;3.92;;
72060;SDS011;59925;52.136;5.420;2023-03-01T09:25:05;7.28;;;4.35;;
72060;SDS011;59925;52.136;5.420;2023-03-01T09:27:32;8.27;;;3.97;;
72060;SDS011;59925;52.136;5.420;2023-03-01T09:29:58;7.65;;;3.78;;
72060;SDS011;59925;52.136;5.420;2023-03-01T09:32:25;6.27;;;3.37;;
72060;SDS011;59925;52.136;5.420;2023-03-01T09:34:52;5.65;;;3.55;;
72060;SDS011;59925;52.136;5.420;2023-03-01T09:37:30;9.40;;;4.50;;
72060;SDS011;59925;52.136;5.420;2023-03-01T09:40:00;6.55;;;3.90;;
72060;SDS011;59925;52.136;5.420;2023-03-01T09:42:27;7.20;;;3.55;;
72060;SDS011;59925;52.136;5.420;2023-03-01T09:47:37;6.88;;;3.47;;
72060;SDS011;59925;52.136;5.420;2023-03-01T09:50:15;5.95;;;3.20;;
72060;SDS011;59925;52.136;5.420;2023-03-01T09:55:15;5.57;;;3.28;;
72060;SDS011;59925;52.136;5.420;2023-03-01T09:57:49;4.60;;;3.07;;
72060;SDS011;59925;52.136;5.420;2023-03-01T10:00:31;4.15;;;2.40;;
72060;SDS011;59925;52.136;5.420;2023-03-01T10:08:58;4.55;;;2.22;;
72060;SDS011;59925;52.136;5.420;2023-03-01T10:11:32;4.60;;;2.10;;
72060;SDS011;59925;52.136;5.420;2023-03-01T10:16:50;5.28;;;2.22;;
72060;SDS011;59925;52.136;5.420;2023-03-01T10:19:23;6.78;;;2.45;;
72060;SDS011;59925;52.136;5.420;2023-03-01T10:21:54;5.88;;;2.35;;
72060;SDS011;59925;52.136;5.420;2023-03-01T10:24:34;4.73;;;2.20;;
72060;SDS011;59925;52.136;5.420;2023-03-01T10:27:04;6.68;;;2.42;;
72060;SDS011;59925;52.136;5.420;2023-03-01T10:29:46;3.10;;;2.15;;
72060;SDS011;59925;52.136;5.420;2023-03-01T10:32:14;3.75;;;2.35;;
72060;SDS011;59925;52.136;5.420;2023-03-01T10:34:43;6.90;;;3.00;;
72060;SDS011;59925;52.136;5.420;2023-03-01T10:39:53;6.05;;;2.65;;
72060;SDS011;59925;52.136;5.420;2023-03-01T10:42:47;5.05;;;2.33;;
72060;SDS011;59925;52.136;5.420;2023-03-01T10:45:35;4.88;;;2.60;;
72060;SDS011;59925;52.136;5.420;2023-03-01T10:56:10;4.68;;;1.83;;
72060;SDS011;59925;52.136;5.420;2023-03-01T10:58:58;3.45;;;1.60;;
72060;SDS011;59925;52.136;5.420;2023-03-01T11:01:33;3.13;;;1.45;;
72060;SDS011;59925;52.136;5.420;2023-03-01T11:06:31;4.32;;;1.63;;
72060;SDS011;59925;52.136;5.420;2023-03-01T11:12:05;9.52;;;2.00;;
72060;SDS011;59925;52.136;5.420;2023-03-01T11:14:39;4.53;;;1.52;;
72060;SDS011;59925;52.136;5.420;2023-03-01T11:17:18;3.23;;;1.60;;
72060;SDS011;59925;52.136;5.420;2023-03-01T11:20:37;4.28;;;1.60;;
72060;SDS011;59925;52.136;5.420;2023-03-01T11:22:43;3.80;;;1.75;;
72060;SDS011;59925;52.136;5.420;2023-03-01T11:25:13;3.55;;;1.63;;
72060;SDS011;59925;52.136;5.420;2023-03-01T11:27:41;2.70;;;1.35;;
72060;SDS011;59925;52.136;5.420;2023-03-01T11:35:35;2.78;;;1.38;;
72060;SDS011;59925;52.136;5.420;2023-03-01T11:38:13;3.60;;;1.17;;
72060;SDS011;59925;52.136;5.420;2023-03-01T11:40:59;3.03;;;1.50;;
72060;SDS011;59925;52.136;5.420;2023-03-01T11:54:38;3.63;;;1.80;;
72060;SDS011;59925;52.136;5.420;2023-03-01T11:57:29;2.67;;;1.70;;
72060;SDS011;59925;52.136;5.420;2023-03-01T12:00:35;3.25;;;1.90;;
72060;SDS011;59925;52.136;5.420;2023-03-01T12:09:06;4.10;;;2.38;;
72060;SDS011;59925;52.136;5.420;2023-03-01T12:12:00;3.77;;;2.00;;
72060;SDS011;59925;52.136;5.420;2023-03-01T12:17:15;6.90;;;2.72;;
72060;SDS011;59925;52.136;5.420;2023-03-01T12:20:15;4.22;;;2.05;;
72060;SDS011;59925;52.136;5.420;2023-03-01T12:33:57;3.58;;;1.73;;
72060;SDS011;59925;52.136;5.420;2023-03-01T12:36:52;3.60;;;2.00;;
72060;SDS011;59925;52.136;5.420;2023-03-01T12:42:16;3.55;;;2.08;;
72060;SDS011;59925;52.136;5.420;2023-03-01T12:50:18;3.35;;;1.92;;
72060;SDS011;59925;52.136;5.420;2023-03-01T12:52:57;3.77;;;1.93;;
72060;SDS011;59925;52.136;5.420;2023-03-01T12:55:37;3.15;;;1.88;;
72060;SDS011;59925;52.136;5.420;2023-03-01T13:09:23;3.60;;;2.15;;
72060;SDS011;59925;52.136;5.420;2023-03-01T13:17:49;3.70;;;2.33;;
72060;SDS011;59925;52.136;5.420;2023-03-01T13:20:19;4.80;;;1.93;;
72060;SDS011;59925;52.136;5.420;2023-03-01T13:31:01;4.97;;;2.13;;
72060;SDS011;59925;52.136;5.420;2023-03-01T13:33:34;4.23;;;2.20;;
72060;SDS011;59925;52.136;5.420;2023-03-01T13:44:51;5.15;;;1.92;;
72060;SDS011;59925;52.136;5.420;2023-03-01T13:49:42;4.47;;;2.25;;
72060;SDS011;59925;52.136;5.420;2023-03-01T13:55:00;2.97;;;1.75;;
72060;SDS011;59925;52.136;5.420;2023-03-01T13:58:00;3.88;;;1.90;;
72060;SDS011;59925;52.136;5.420;2023-03-01T14:00:37;3.60;;;2.03;;
72060;SDS011;59925;52.136;5.420;2023-03-01T14:03:09;3.80;;;2.03;;
72060;SDS011;59925;52.136;5.420;2023-03-01T14:05:41;4.07;;;2.00;;
72060;SDS011;59925;52.136;5.420;2023-03-01T14:08:23;4.97;;;1.98;;
72060;SDS011;59925;52.136;5.420;2023-03-01T14:10:58;3.47;;;2.17;;
72060;SDS011;59925;52.136;5.420;2023-03-01T14:25:00;3.67;;;2.10;;
72060;SDS011;59925;52.136;5.420;2023-03-01T14:27:36;4.60;;;1.77;;
72060;SDS011;59925;52.136;5.420;2023-03-01T14:30:10;3.05;;;1.67;;
72060;SDS011;59925;52.136;5.420;2023-03-01T14:32:40;3.20;;;2.10;;
72060;SDS011;59925;52.136;5.420;2023-03-01T14:35:19;5.20;;;2.42;;
72060;SDS011;59925;52.136;5.420;2023-03-01T14:37:47;4.95;;;2.40;;
72060;SDS011;59925;52.136;5.420;2023-03-01T14:40:22;3.87;;;2.40;;
72060;SDS011;59925;52.136;5.420;2023-03-01T14:42:49;3.80;;;2.25;;
72060;SDS011;59925;52.136;5.420;2023-03-01T14:45:16;3.22;;;1.92;;
72060;SDS011;59925;52.136;5.420;2023-03-01T14:47:44;3.22;;;2.05;;
72060;SDS011;59925;52.136;5.420;2023-03-01T14:50:22;4.78;;;2.42;;
72060;SDS011;59925;52.136;5.420;2023-03-01T14:52:53;3.23;;;2.27;;
72060;SDS011;59925;52.136;5.420;2023-03-01T14:55:30;4.20;;;2.10;;
72060;SDS011;59925;52.136;5.420;2023-03-01T14:58:02;2.97;;;1.92;;
72060;SDS011;59925;52.136;5.420;2023-03-01T15:00:30;4.07;;;2.20;;
72060;SDS011;59925;52.136;5.420;2023-03-01T15:03:12;4.25;;;2.47;;
72060;SDS011;59925;52.136;5.420;2023-03-01T15:05:44;4.57;;;2.43;;
72060;SDS011;59925;52.136;5.420;2023-03-01T15:08:16;3.55;;;2.53;;
72060;SDS011;59925;52.136;5.420;2023-03-01T15:13:48;3.22;;;2.30;;
72060;SDS011;59925;52.136;5.420;2023-03-01T15:16:17;6.00;;;3.10;;
72060;SDS011;59925;52.136;5.420;2023-03-01T15:18:56;4.00;;;2.50;;
72060;SDS011;59925;52.136;5.420;2023-03-01T15:21:26;3.42;;;2.30;;
72060;SDS011;59925;52.136;5.420;2023-03-01T15:23:57;5.30;;;2.10;;
72060;SDS011;59925;52.136;5.420;2023-03-01T15:26:31;3.67;;;2.13;;
72060;SDS011;59925;52.136;5.420;2023-03-01T15:29:04;4.43;;;2.47;;
72060;SDS011;59925;52.136;5.420;2023-03-01T15:31:34;3.97;;;2.60;;
72060;SDS011;59925;52.136;5.420;2023-03-01T15:34:20;4.78;;;2.60;;
72060;SDS011;59925;52.136;5.420;2023-03-01T15:36:50;3.95;;;2.05;;
72060;SDS011;59925;52.136;5.420;2023-03-01T15:41:56;6.25;;;2.40;;
72060;SDS011;59925;52.136;5.420;2023-03-01T15:44:28;5.60;;;2.43;;
72060;SDS011;59925;52.136;5.420;2023-03-01T15:47:25;3.42;;;2.03;;
72060;SDS011;59925;52.136;5.420;2023-03-01T15:49:54;3.92;;;1.92;;
72060;SDS011;59925;52.136;5.420;2023-03-01T15:52:40;3.67;;;2.15;;
72060;SDS011;59925;52.136;5.420;2023-03-01T15:55:26;4.93;;;2.28;;
72060;SDS011;59925;52.136;5.420;2023-03-01T16:00:26;4.88;;;2.35;;
72060;SDS011;59925;52.136;5.420;2023-03-01T16:02:54;5.55;;;2.40;;
72060;SDS011;59925;52.136;5.420;2023-03-01T16:05:23;5.53;;;2.47;;
72060;SDS011;59925;52.136;5.420;2023-03-01T16:07:54;4.57;;;2.42;;
72060;SDS011;59925;52.136;5.420;2023-03-01T16:10:21;6.23;;;2.77;;
72060;SDS011;59925;52.136;5.420;2023-03-01T16:12:49;5.55;;;2.90;;
72060;SDS011;59925;52.136;5.420;2023-03-01T16:15:28;4.82;;;2.55;;
72060;SDS011;59925;52.136;5.420;2023-03-01T16:17:58;4.50;;;2.95;;
72060;SDS011;59925;52.136;5.420;2023-03-01T16:20:24;3.58;;;2.40;;
72060;SDS011;59925;52.136;5.420;2023-03-01T16:23:03;5.33;;;2.30;;
72060;SDS011;59925;52.136;5.420;2023-03-01T16:25:31;4.47;;;2.25;;
72060;SDS011;59925;52.136;5.420;2023-03-01T16:27:59;4.70;;;2.40;;
72060;SDS011;59925;52.136;5.420;2023-03-01T16:30:32;5.00;;;2.35;;
72060;SDS011;59925;52.136;5.420;2023-03-01T16:33:02;3.97;;;2.47;;
72060;SDS011;59925;52.136;5.420;2023-03-01T16:35:49;4.37;;;2.33;;
72060;SDS011;59925;52.136;5.420;2023-03-01T16:38:16;4.13;;;1.92;;
72060;SDS011;59925;52.136;5.420;2023-03-01T16:40:46;5.75;;;2.22;;
72060;SDS011;59925;52.136;5.420;2023-03-01T16:43:14;4.22;;;2.28;;
72060;SDS011;59925;52.136;5.420;2023-03-01T16:45:41;4.95;;;2.72;;
72060;SDS011;59925;52.136;5.420;2023-03-01T16:48:10;5.47;;;2.67;;
72060;SDS011;59925;52.136;5.420;2023-03-01T16:50:37;10.88;;;2.70;;
72060;SDS011;59925;52.136;5.420;2023-03-01T16:53:04;5.53;;;2.70;;
72060;SDS011;59925;52.136;5.420;2023-03-01T16:55:31;4.35;;;2.38;;
72060;SDS011;59925;52.136;5.420;2023-03-01T16:58:00;4.40;;;2.33;;
72060;SDS011;59925;52.136;5.420;2023-03-01T17:00:27;6.73;;;2.70;;
72060;SDS011;59925;52.136;5.420;2023-03-01T17:02:54;6.20;;;2.70;;
72060;SDS011;59925;52.136;5.420;2023-03-01T17:05:20;6.03;;;2.53;;
72060;SDS011;59925;52.136;5.420;2023-03-01T17:07:49;6.43;;;2.47;;
72060;SDS011;59925;52.136;5.420;2023-03-01T17:10:16;6.00;;;2.40;;
72060;SDS011;59925;52.136;5.420;2023-03-01T17:12:43;5.27;;;2.17;;
72060;SDS011;59925;52.136;5.420;2023-03-01T17:15:09;5.88;;;2.38;;
72060;SDS011;59925;52.136;5.420;2023-03-01T17:17:38;4.15;;;2.40;;
72060;SDS011;59925;52.136;5.420;2023-03-01T17:20:04;6.03;;;2.20;;
72060;SDS011;59925;52.136;5.420;2023-03-01T17:22:31;4.28;;;1.83;;
72060;SDS011;59925;52.136;5.420;2023-03-01T17:24:58;5.57;;;2.20;;
72060;SDS011;59925;52.136;5.420;2023-03-01T17:27:24;6.00;;;2.55;;
72060;SDS011;59925;52.136;5.420;2023-03-01T17:29:51;6.38;;;2.50;;
72060;SDS011;59925;52.136;5.420;2023-03-01T17:32:18;5.28;;;2.78;;